Time;durP1;ratioP1;P1;durP2;ratioP2;P2;SDS_P1;SDS_P2;PMS_P1;PMS_P2;Temp;Humidity;BMP_temperature;BMP_pressure;BME280_temperature;BME280_humidity;BME280_pressure;Samples;Min_cycle;Max_cycle;Signal;HPM_P1;HPM_P2
2021/07/25 00:00:40;;;;;;;8.40;7.60;;;21.20;99.90;;;;;;4994766;28;20188;-75
2021/07/25 00:03:08;;;;;;;10.50;7.80;;;21.20;99.90;;;;;;4992646;28;20471;-74
2021/07/25 00:05:34;;;;;;;8.37;7.57;;;21.20;99.90;;;;;;4993377;28;20472;-75
2021/07/25 00:08:00;;;;;;;11.40;8.23;;;21.20;99.90;;;;;;4976318;28;20507;-74
2021/07/25 00:10:26;;;;;;;11.33;7.63;;;21.20;99.90;;;;;;4995821;28;20512;-75
2021/07/25 00:12:53;;;;;;;8.70;7.17;;;21.20;99.90;;;;;;4996421;28;20263;-75
2021/07/25 00:15:19;;;;;;;9.10;8.03;;;21.20;99.90;;;;;;4981996;28;21004;-75
2021/07/25 00:17:45;;;;;;;9.60;8.40;;;21.20;99.90;;;;;;4996599;28;20435;-75
2021/07/25 00:20:12;;;;;;;8.80;7.50;;;21.30;99.90;;;;;;4992365;28;21124;-75
2021/07/25 00:22:38;;;;;;;9.03;8.13;;;21.30;99.90;;;;;;4993937;28;20882;-76
2021/07/25 00:25:08;;;;;;;9.03;7.70;;;21.30;99.90;;;;;;4993169;28;20450;-74
2021/07/25 00:27:41;;;;;;;9.10;8.20;;;21.30;99.90;;;;;;4978408;28;20428;-74
2021/07/25 00:30:11;;;;;;;9.30;7.90;;;21.20;99.90;;;;;;4992117;28;20496;-74
2021/07/25 00:32:37;;;;;;;11.27;7.90;;;21.40;99.90;;;;;;4991493;28;20424;-74
2021/07/25 00:35:04;;;;;;;9.17;7.97;;;21.30;99.90;;;;;;4991351;28;20453;-74
2021/07/25 00:37:29;;;;;;;8.80;7.90;;;21.20;99.90;;;;;;4988072;28;20448;-74
2021/07/25 00:39:55;;;;;;;13.37;8.50;;;21.10;99.90;;;;;;4988401;28;20441;-74
2021/07/25 00:42:21;;;;;;;11.10;7.90;;;21.10;99.90;;;;;;4991924;28;20197;-73
2021/07/25 00:44:46;;;;;;;10.70;8.23;;;21.30;99.90;;;;;;4993535;28;20221;-72
2021/07/25 00:47:12;;;;;;;9.53;8.20;;;21.10;99.90;;;;;;4991168;28;20220;-72
2021/07/25 00:49:38;;;;;;;11.50;8.10;;;21.20;99.90;;;;;;4990285;28;20220;-74
2021/07/25 00:52:06;;;;;;;13.13;8.90;;;21.20;99.90;;;;;;4990553;28;20244;-74
2021/07/25 00:54:31;;;;;;;13.23;8.20;;;21.10;99.90;;;;;;4993585;28;20464;-74
2021/07/25 00:56:57;;;;;;;10.10;9.20;;;21.00;99.90;;;;;;4989692;28;20441;-72
2021/07/25 00:59:23;;;;;;;9.90;8.80;;;21.10;99.90;;;;;;4995231;28;20239;-74
2021/07/25 01:01:49;;;;;;;10.83;9.00;;;21.00;99.90;;;;;;4992094;28;20197;-73
2021/07/25 01:04:31;;;;;;;11.13;10.03;;;21.00;99.90;;;;;;4990536;28;20209;-73
2021/07/25 01:07:18;;;;;;;12.50;11.40;;;21.10;99.90;;;;;;4972551;28;20448;-73
2021/07/25 01:10:06;;;;;;;9.53;8.63;;;21.20;99.90;;;;;;4991821;28;20471;-74
2021/07/25 01:12:42;;;;;;;11.47;8.90;;;21.10;99.90;;;;;;4993204;28;20436;-74
2021/07/25 01:15:12;;;;;;;10.03;9.03;;;21.10;99.90;;;;;;4994606;28;20500;-74
2021/07/25 01:17:37;;;;;;;10.27;9.27;;;21.20;99.90;;;;;;4996072;28;20804;-73
2021/07/25 01:20:05;;;;;;;9.50;8.57;;;21.10;99.90;;;;;;4994283;28;20463;-73
2021/07/25 01:22:35;;;;;;;10.70;9.40;;;21.00;99.90;;;;;;4993129;28;20196;-74
2021/07/25 01:25:03;;;;;;;15.90;8.83;;;21.00;99.90;;;;;;4991440;28;21002;-73
2021/07/25 01:27:51;;;;;;;10.97;8.27;;;20.90;99.90;;;;;;4991990;28;20450;-74
2021/07/25 01:30:24;;;;;;;9.77;8.57;;;21.00;99.90;;;;;;4988517;28;20463;-73
2021/07/25 01:32:53;;;;;;;11.20;8.97;;;21.10;99.90;;;;;;4993137;28;21262;-73
2021/07/25 01:35:21;;;;;;;11.90;9.10;;;21.00;99.90;;;;;;4990742;28;20448;-73
2021/07/25 01:37:47;;;;;;;12.83;8.63;;;21.00;99.90;;;;;;4992448;28;20483;-73
2021/07/25 01:40:15;;;;;;;10.13;9.10;;;20.90;99.90;;;;;;4988782;28;20475;-74
2021/07/25 01:42:42;;;;;;;11.10;9.33;;;21.00;99.90;;;;;;4994220;28;20679;-74
2021/07/25 01:45:09;;;;;;;9.77;8.87;;;21.00;99.90;;;;;;4990005;28;20811;-73
2021/07/25 01:47:35;;;;;;;9.60;8.60;;;21.00;99.90;;;;;;4992659;28;20470;-73
2021/07/25 01:50:01;;;;;;;10.50;8.33;;;21.00;99.90;;;;;;4992232;28;20466;-74
2021/07/25 01:52:27;;;;;;;10.63;8.03;;;21.00;99.90;;;;;;4991034;28;20436;-73
2021/07/25 01:54:53;;;;;;;9.47;8.57;;;20.80;99.90;;;;;;4993867;28;20209;-73
2021/07/25 01:57:18;;;;;;;9.07;7.90;;;21.00;99.90;;;;;;4988884;28;20237;-73
2021/07/25 01:59:44;;;;;;;10.67;8.70;;;20.90;99.90;;;;;;4992385;28;20204;-74
2021/07/25 02:02:09;;;;;;;9.30;8.30;;;20.90;99.90;;;;;;4992042;28;20221;-74
2021/07/25 02:04:35;;;;;;;8.70;7.90;;;20.90;99.90;;;;;;4991709;28;20221;-74
2021/07/25 02:07:01;;;;;;;10.10;8.60;;;21.00;99.90;;;;;;4993500;28;20190;-73
2021/07/25 02:09:27;;;;;;;8.53;7.73;;;21.00;99.90;;;;;;4993852;28;20213;-72
2021/07/25 02:11:54;;;;;;;11.50;9.27;;;21.10;99.90;;;;;;4990199;28;20193;-73
2021/07/25 02:14:19;;;;;;;11.47;8.00;;;21.00;99.90;;;;;;4992721;28;20209;-73
2021/07/25 02:16:45;;;;;;;10.03;8.30;;;21.10;99.90;;;;;;4992711;28;20494;-73
2021/07/25 02:19:10;;;;;;;13.53;9.50;;;21.20;99.90;;;;;;4993839;28;20280;-73
2021/07/25 02:21:36;;;;;;;9.60;8.63;;;21.10;99.90;;;;;;4996106;28;20193;-73
2021/07/25 02:24:02;;;;;;;10.90;8.37;;;21.20;99.90;;;;;;4994901;28;20970;-72
2021/07/25 02:26:27;;;;;;;9.73;8.27;;;21.10;99.90;;;;;;4996895;28;20185;-73
2021/07/25 02:28:53;;;;;;;8.90;7.53;;;21.10;99.90;;;;;;4992796;28;20283;-72
2021/07/25 02:31:19;;;;;;;11.80;8.53;;;21.30;99.90;;;;;;4997054;28;20594;-72
2021/07/25 02:33:44;;;;;;;9.67;8.43;;;21.40;99.90;;;;;;4996433;28;20240;-73
2021/07/25 02:36:10;;;;;;;9.30;8.40;;;21.30;99.90;;;;;;4993918;28;20217;-73
2021/07/25 02:38:36;;;;;;;12.83;8.63;;;21.20;99.90;;;;;;4978793;28;20177;-73
2021/07/25 02:41:01;;;;;;;11.60;8.40;;;21.20;99.90;;;;;;4974576;28;20284;-73
2021/07/25 02:43:27;;;;;;;10.70;8.63;;;21.10;99.90;;;;;;4995607;28;20189;-72
2021/07/25 02:45:52;;;;;;;12.43;8.37;;;21.10;99.90;;;;;;4995970;28;20217;-72
2021/07/25 02:48:18;;;;;;;12.70;9.53;;;21.00;99.90;;;;;;4996589;28;20193;-73
2021/07/25 02:50:44;;;;;;;15.70;9.40;;;21.00;99.90;;;;;;4994783;28;20217;-73
2021/07/25 02:53:09;;;;;;;9.10;8.20;;;21.10;99.90;;;;;;4976931;28;20197;-73
2021/07/25 02:55:35;;;;;;;9.10;8.30;;;21.20;99.90;;;;;;4996648;28;20214;-73
2021/07/25 02:58:01;;;;;;;13.37;9.13;;;21.20;99.90;;;;;;4991669;28;20189;-73
2021/07/25 03:00:26;;;;;;;8.77;8.00;;;21.20;99.90;;;;;;4995133;28;20193;-73
2021/07/25 03:02:56;;;;;;;11.53;9.77;;;21.10;99.90;;;;;;4992293;28;20201;-73
2021/07/25 03:05:25;;;;;;;9.40;8.50;;;20.90;99.90;;;;;;4994785;28;20224;-74
2021/07/25 03:07:50;;;;;;;10.13;9.00;;;20.90;99.90;;;;;;4993038;28;20447;-74
2021/07/25 03:10:17;;;;;;;9.50;8.60;;;20.90;99.90;;;;;;4992522;28;21672;-74
2021/07/25 03:12:43;;;;;;;13.63;8.23;;;20.90;99.90;;;;;;4992051;28;20189;-73
2021/07/25 03:15:09;;;;;;;13.07;9.07;;;20.90;99.90;;;;;;4993271;28;22458;-73
2021/07/25 03:17:35;;;;;;;11.60;8.63;;;20.80;99.90;;;;;;4992682;28;20199;-74
2021/07/25 03:20:01;;;;;;;10.10;9.20;;;20.80;99.90;;;;;;4993675;28;20433;-73
2021/07/25 03:22:27;;;;;;;9.57;8.67;;;20.80;99.90;;;;;;4995434;28;20558;-73
2021/07/25 03:24:52;;;;;;;12.50;9.40;;;20.80;99.90;;;;;;4995128;28;20292;-74
2021/07/25 03:27:18;;;;;;;11.67;8.90;;;20.90;99.90;;;;;;4993548;28;20293;-73
2021/07/25 03:29:43;;;;;;;12.80;8.40;;;20.90;99.90;;;;;;4993666;28;20221;-73
2021/07/25 03:32:09;;;;;;;13.30;8.93;;;21.00;99.90;;;;;;4994466;28;20251;-73
2021/07/25 03:34:35;;;;;;;9.43;8.53;;;21.00;99.90;;;;;;4978266;28;20301;-73
2021/07/25 03:37:01;;;;;;;11.57;9.43;;;21.00;99.90;;;;;;4995126;28;20672;-73
2021/07/25 03:39:27;;;;;;;9.03;8.10;;;21.00;99.90;;;;;;4994449;28;20268;-73
2021/07/25 03:41:53;;;;;;;9.50;8.40;;;21.00;99.90;;;;;;4996432;28;20594;-73
2021/07/25 03:44:21;;;;;;;10.07;9.07;;;21.10;99.90;;;;;;4995011;28;20213;-73
2021/07/25 03:46:47;;;;;;;12.30;8.90;;;21.00;99.90;;;;;;4994944;28;20209;-74
2021/07/25 03:49:13;;;;;;;9.57;8.67;;;21.00;99.90;;;;;;4975415;28;20479;-74
2021/07/25 03:51:39;;;;;;;9.03;8.13;;;21.10;99.90;;;;;;4976363;28;20199;-73
2021/07/25 03:54:05;;;;;;;9.03;8.13;;;21.20;99.90;;;;;;4994498;28;20441;-74
2021/07/25 03:56:33;;;;;;;10.10;9.10;;;21.20;99.90;;;;;;4977546;28;20554;-73
2021/07/25 03:58:58;;;;;;;9.70;8.50;;;21.20;99.90;;;;;;4993309;28;20491;-73
2021/07/25 04:01:24;;;;;;;14.70;10.10;;;21.10;99.90;;;;;;4993402;28;20479;-73
2021/07/25 04:03:49;;;;;;;14.93;9.33;;;21.00;99.90;;;;;;4977222;28;20198;-74
2021/07/25 04:06:15;;;;;;;9.50;8.60;;;21.10;99.90;;;;;;4994603;28;20197;-74
2021/07/25 04:08:41;;;;;;;9.80;8.53;;;21.10;99.90;;;;;;4992171;28;20209;-74
2021/07/25 04:11:06;;;;;;;10.70;9.60;;;21.10;99.90;;;;;;4989870;28;20192;-74
2021/07/25 04:13:32;;;;;;;10.53;8.93;;;21.20;99.90;;;;;;4991617;28;20194;-73
2021/07/25 04:15:58;;;;;;;13.40;9.10;;;21.00;99.90;;;;;;4994322;28;20634;-72
2021/07/25 04:18:23;;;;;;;10.37;9.20;;;20.90;99.90;;;;;;4990575;28;20185;-73
2021/07/25 04:20:49;;;;;;;9.83;8.33;;;21.10;99.90;;;;;;4990335;28;20227;-74
2021/07/25 04:23:14;;;;;;;10.90;9.40;;;21.30;99.90;;;;;;4980497;28;20197;-73
2021/07/25 04:25:40;;;;;;;12.83;8.33;;;21.20;99.90;;;;;;4993888;28;20889;-74
2021/07/25 04:28:06;;;;;;;15.37;9.37;;;21.20;99.90;;;;;;4976149;28;20186;-74
2021/07/25 04:30:33;;;;;;;9.70;8.70;;;21.00;99.90;;;;;;4992434;28;20225;-73
2021/07/25 04:33:00;;;;;;;13.20;9.00;;;21.00;99.90;;;;;;4993440;28;20486;-73
2021/07/25 04:35:27;;;;;;;10.10;9.10;;;20.90;99.90;;;;;;4996744;28;21056;-74
2021/07/25 04:37:54;;;;;;;11.17;9.37;;;20.80;99.90;;;;;;4990929;28;20532;-73
2021/07/25 04:40:21;;;;;;;10.50;9.30;;;20.90;99.90;;;;;;4992121;28;20518;-73
2021/07/25 04:42:55;;;;;;;12.27;10.07;;;21.00;99.90;;;;;;4995112;28;20825;-73
2021/07/25 04:45:51;;;;;;;13.10;8.73;;;21.00;99.90;;;;;;4991851;28;20465;-73
2021/07/25 04:48:35;;;;;;;12.10;10.30;;;20.90;99.90;;;;;;4966808;28;20474;-73
2021/07/25 04:51:06;;;;;;;13.33;10.10;;;20.90;99.90;;;;;;4993386;28;20467;-74
2021/07/25 04:53:39;;;;;;;13.50;10.60;;;21.00;99.90;;;;;;4991478;28;20449;-73
2021/07/25 04:56:08;;;;;;;11.20;9.60;;;21.00;99.90;;;;;;4993969;28;20453;-73
2021/07/25 04:58:50;;;;;;;15.13;10.27;;;21.00;99.90;;;;;;4992105;28;21151;-74
2021/07/25 05:01:21;;;;;;;12.20;8.70;;;20.90;99.90;;;;;;4992864;28;20440;-73
2021/07/25 05:03:47;;;;;;;10.23;8.97;;;21.10;99.90;;;;;;4990592;28;20451;-74
2021/07/25 05:06:14;;;;;;;9.90;8.90;;;21.00;99.90;;;;;;4992015;28;20464;-73
2021/07/25 05:08:41;;;;;;;10.30;9.30;;;21.10;99.90;;;;;;4993010;28;20436;-74
2021/07/25 05:11:21;;;;;;;10.47;9.33;;;21.10;99.90;;;;;;4988882;28;20514;-73
2021/07/25 05:13:49;;;;;;;18.23;9.10;;;21.10;99.90;;;;;;4994905;28;20449;-72
2021/07/25 05:16:26;;;;;;;10.83;9.60;;;21.20;99.90;;;;;;4977194;28;20486;-72
2021/07/25 05:19:18;;;;;;;10.00;8.80;;;21.10;99.90;;;;;;4989578;28;20468;-74
2021/07/25 05:21:52;;;;;;;12.00;9.60;;;21.00;99.90;;;;;;4993347;28;20451;-74
2021/07/25 05:24:23;;;;;;;11.77;10.17;;;21.00;99.90;;;;;;4995022;28;20467;-74
2021/07/25 05:26:49;;;;;;;10.13;9.13;;;21.00;99.90;;;;;;4989429;28;20466;-73
2021/07/25 05:29:19;;;;;;;10.20;8.90;;;21.10;99.90;;;;;;4992589;28;20492;-73
2021/07/25 05:31:45;;;;;;;14.63;9.50;;;21.00;99.90;;;;;;4991482;28;20628;-73
2021/07/25 05:34:10;;;;;;;16.83;9.30;;;21.30;99.90;;;;;;4981732;28;20543;-73
2021/07/25 05:36:36;;;;;;;11.97;8.83;;;21.40;99.90;;;;;;4992793;28;20276;-74
2021/07/25 05:39:02;;;;;;;10.67;9.10;;;21.40;99.90;;;;;;4989347;28;20700;-74
2021/07/25 05:41:27;;;;;;;10.43;9.40;;;21.30;99.90;;;;;;4991322;28;20190;-73
2021/07/25 05:43:53;;;;;;;10.30;9.30;;;21.30;99.90;;;;;;4991966;28;20203;-73
2021/07/25 05:46:19;;;;;;;10.73;9.00;;;21.30;99.90;;;;;;4991263;28;20187;-73
2021/07/25 05:48:44;;;;;;;11.97;10.67;;;21.20;99.90;;;;;;4991696;28;20201;-73
2021/07/25 05:51:10;;;;;;;11.97;10.43;;;21.50;99.90;;;;;;4993006;28;20190;-73
2021/07/25 05:53:36;;;;;;;11.07;9.23;;;21.20;99.90;;;;;;4995262;28;20194;-73
2021/07/25 05:56:02;;;;;;;10.80;8.93;;;21.40;99.90;;;;;;4995819;28;20304;-73
2021/07/25 05:58:27;;;;;;;11.87;9.13;;;21.30;99.90;;;;;;4997603;28;20185;-73
2021/07/25 06:00:53;;;;;;;10.80;9.20;;;21.30;99.90;;;;;;4994149;28;20200;-73
2021/07/25 06:03:18;;;;;;;10.30;9.20;;;21.30;99.90;;;;;;4994885;28;20244;-73
2021/07/25 06:05:44;;;;;;;11.50;8.90;;;21.30;99.90;;;;;;4996362;28;20216;-73
2021/07/25 06:08:10;;;;;;;13.83;9.67;;;21.40;99.90;;;;;;4995544;28;20667;-73
2021/07/25 06:10:41;;;;;;;9.43;8.53;;;21.40;99.90;;;;;;4997229;28;20212;-74
2021/07/25 06:13:07;;;;;;;16.13;9.73;;;21.50;99.90;;;;;;4995704;28;20297;-73
2021/07/25 06:15:34;;;;;;;11.67;9.20;;;21.50;99.90;;;;;;4996531;28;20460;-73
2021/07/25 06:18:01;;;;;;;11.27;8.23;;;21.60;99.90;;;;;;4993191;28;20190;-73
2021/07/25 06:20:28;;;;;;;11.20;9.03;;;21.60;99.90;;;;;;4998886;28;20953;-74
2021/07/25 06:22:55;;;;;;;9.37;8.43;;;21.60;99.90;;;;;;4996078;28;20432;-74
2021/07/25 06:25:24;;;;;;;9.10;8.03;;;21.60;99.90;;;;;;4993315;28;21103;-73
2021/07/25 06:27:55;;;;;;;12.90;8.50;;;21.60;99.90;;;;;;4995816;28;20443;-73
2021/07/25 06:30:23;;;;;;;9.00;8.20;;;21.70;99.90;;;;;;4995118;28;20529;-73
2021/07/25 06:33:08;;;;;;;8.07;7.37;;;21.80;99.90;;;;;;4994873;28;20432;-73
2021/07/25 06:35:39;;;;;;;8.23;7.10;;;21.80;99.90;;;;;;4990912;28;20460;-73
2021/07/25 06:38:17;;;;;;;9.17;8.07;;;21.70;99.90;;;;;;4992706;28;20464;-73
2021/07/25 06:40:47;;;;;;;12.77;8.33;;;21.70;99.90;;;;;;4998167;28;20429;-74
2021/07/25 06:43:13;;;;;;;8.10;7.30;;;21.70;99.90;;;;;;4994137;28;20440;-74
2021/07/25 06:45:39;;;;;;;9.37;6.83;;;21.70;99.90;;;;;;4994113;28;22632;-73
2021/07/25 06:48:26;;;;;;;7.70;6.90;;;21.70;99.90;;;;;;4993603;28;20436;-74
2021/07/25 06:50:54;;;;;;;13.63;7.97;;;21.70;99.90;;;;;;4994044;28;21080;-73
2021/07/25 06:53:21;;;;;;;13.03;8.83;;;21.70;99.90;;;;;;4995161;28;20435;-73
2021/07/25 06:55:51;;;;;;;8.63;7.83;;;21.50;99.90;;;;;;4995356;28;20459;-73
2021/07/25 06:58:17;;;;;;;8.30;7.33;;;21.60;99.90;;;;;;4995741;28;20428;-74
2021/07/25 07:00:43;;;;;;;12.13;7.37;;;21.70;99.90;;;;;;4993083;28;20437;-72
2021/07/25 07:03:09;;;;;;;7.90;7.07;;;21.60;99.90;;;;;;4994349;28;22517;-73
2021/07/25 07:05:35;;;;;;;8.37;6.67;;;21.60;99.90;;;;;;4978790;28;20579;-74
2021/07/25 07:08:02;;;;;;;8.90;7.10;;;21.70;99.90;;;;;;4990483;28;20205;-73
2021/07/25 07:10:34;;;;;;;7.77;6.70;;;21.80;99.90;;;;;;4997726;28;20223;-74
2021/07/25 07:13:02;;;;;;;7.87;7.07;;;22.00;99.90;;;;;;4994080;28;20519;-74
2021/07/25 07:15:29;;;;;;;8.90;7.20;;;22.10;99.90;;;;;;4986139;28;20918;-74
2021/07/25 07:17:57;;;;;;;7.90;6.80;;;22.10;99.90;;;;;;4994615;28;20522;-72
2021/07/25 07:20:24;;;;;;;10.53;6.80;;;22.10;99.90;;;;;;4989666;28;20484;-72
2021/07/25 07:23:02;;;;;;;7.50;5.70;;;22.20;99.90;;;;;;4993777;28;20455;-73
2021/07/25 07:25:33;;;;;;;7.13;6.40;;;22.20;99.90;;;;;;4992375;28;21106;-73
2021/07/25 07:27:59;;;;;;;7.00;6.27;;;22.10;99.90;;;;;;4990583;28;20976;-73
2021/07/25 07:30:25;;;;;;;6.50;5.90;;;22.10;99.90;;;;;;4992667;28;20474;-72
2021/07/25 07:32:51;;;;;;;6.93;6.23;;;22.10;99.90;;;;;;4979039;28;20251;-73
2021/07/25 07:35:25;;;;;;;7.93;6.67;;;22.10;99.90;;;;;;4995746;28;20508;-72
2021/07/25 07:37:51;;;;;;;6.80;6.10;;;22.20;99.90;;;;;;4993263;28;20311;-72
2021/07/25 07:40:18;;;;;;;5.73;5.23;;;22.20;99.90;;;;;;4994412;28;20448;-72
2021/07/25 07:42:44;;;;;;;6.20;5.30;;;22.30;99.90;;;;;;4993602;28;20436;-73
2021/07/25 07:45:11;;;;;;;7.27;5.60;;;22.50;99.90;;;;;;4990759;28;20559;-72
2021/07/25 07:47:36;;;;;;;5.50;4.93;;;22.50;99.90;;;;;;4997559;28;20447;-72
2021/07/25 07:50:02;;;;;;;7.83;5.17;;;22.60;99.90;;;;;;4992264;28;20468;-73
2021/07/25 07:52:27;;;;;;;5.30;4.80;;;22.60;99.90;;;;;;4993346;28;20174;-72
2021/07/25 07:54:53;;;;;;;6.03;5.23;;;22.60;99.90;;;;;;4992030;28;20213;-72
2021/07/25 07:57:19;;;;;;;5.20;4.80;;;22.70;99.90;;;;;;4997089;28;20192;-73
2021/07/25 07:59:44;;;;;;;7.40;5.40;;;22.80;99.90;;;;;;4991841;28;20189;-73
2021/07/25 08:02:10;;;;;;;6.83;5.40;;;22.70;99.90;;;;;;4993693;28;21710;-71
2021/07/25 08:04:36;;;;;;;6.50;5.20;;;22.90;99.90;;;;;;4993292;28;20283;-72
2021/07/25 08:07:02;;;;;;;5.77;5.17;;;23.00;99.90;;;;;;4993045;28;20204;-73
2021/07/25 08:09:28;;;;;;;5.87;4.70;;;23.10;99.90;;;;;;4993796;28;20224;-74
2021/07/25 08:11:54;;;;;;;6.03;5.30;;;23.10;99.90;;;;;;4991337;28;20433;-74
2021/07/25 08:14:20;;;;;;;5.20;4.70;;;23.20;99.90;;;;;;4992941;28;20584;-73
2021/07/25 08:16:49;;;;;;;5.87;5.27;;;23.20;99.90;;;;;;4977562;28;21018;-73
2021/07/25 08:19:16;;;;;;;6.10;5.33;;;23.30;99.90;;;;;;4989823;28;20459;-73
2021/07/25 08:21:42;;;;;;;5.57;4.93;;;23.40;99.90;;;;;;4992724;28;20444;-73
2021/07/25 08:24:08;;;;;;;6.00;5.40;;;23.30;99.90;;;;;;4997539;28;20505;-74
2021/07/25 08:26:35;;;;;;;5.13;4.43;;;23.30;99.90;;;;;;4992705;28;20530;-73
2021/07/25 08:29:00;;;;;;;6.63;4.70;;;23.50;99.90;;;;;;4993683;28;20333;-73
2021/07/25 08:31:26;;;;;;;5.67;4.30;;;23.50;99.90;;;;;;4995429;28;20515;-73
2021/07/25 08:33:52;;;;;;;4.90;4.40;;;23.60;99.90;;;;;;4993158;28;20647;-73
2021/07/25 08:36:18;;;;;;;5.77;4.90;;;23.70;99.90;;;;;;4990121;28;20200;-73
2021/07/25 08:38:44;;;;;;;4.93;4.43;;;24.00;99.90;;;;;;4988960;28;20804;-72
2021/07/25 08:41:35;;;;;;;7.90;4.77;;;24.10;99.90;;;;;;4990118;28;20885;-72
2021/07/25 08:44:26;;;;;;;6.10;5.33;;;24.00;99.90;;;;;;4989912;28;20433;-72
2021/07/25 08:46:56;;;;;;;6.70;5.10;;;23.90;99.90;;;;;;4984461;28;20432;-72
2021/07/25 08:49:48;;;;;;;6.73;4.40;;;24.10;99.90;;;;;;4990752;28;20494;-72
2021/07/25 08:52:17;;;;;;;12.40;7.93;;;24.10;99.90;;;;;;4974243;28;20511;-73
2021/07/25 08:54:43;;;;;;;6.10;5.03;;;24.20;99.90;;;;;;4992219;28;20493;-72
2021/07/25 08:57:13;;;;;;;5.60;5.10;;;24.40;99.90;;;;;;4989042;28;21184;-72
2021/07/25 08:59:42;;;;;;;5.83;5.33;;;24.40;99.90;;;;;;4988464;28;20441;-72
2021/07/25 09:02:25;;;;;;;5.10;4.60;;;24.40;99.90;;;;;;4972278;28;20448;-73
2021/07/25 09:04:52;;;;;;;4.67;4.07;;;24.30;99.90;;;;;;4989869;28;20452;-73
2021/07/25 09:07:21;;;;;;;5.03;4.57;;;24.40;99.90;;;;;;4988742;28;20804;-72
2021/07/25 09:09:50;;;;;;;5.70;5.20;;;24.70;99.90;;;;;;4993273;28;21085;-72
2021/07/25 09:12:18;;;;;;;5.87;5.07;;;24.90;99.90;;;;;;4989674;28;20441;-72
2021/07/25 09:14:50;;;;;;;6.20;4.77;;;25.00;99.90;;;;;;4993600;28;20444;-72
2021/07/25 09:17:16;;;;;;;7.00;5.10;;;24.70;99.90;;;;;;4994219;28;20971;-73
2021/07/25 09:20:08;;;;;;;6.73;4.73;;;24.70;99.90;;;;;;4992238;28;20459;-72
2021/07/25 09:22:34;;;;;;;5.87;4.73;;;24.50;99.90;;;;;;4993985;28;20447;-72
2021/07/25 09:25:00;;;;;;;5.03;4.57;;;24.40;99.90;;;;;;4995647;28;20479;-72
2021/07/25 09:27:25;;;;;;;7.50;4.67;;;24.50;99.90;;;;;;4993394;28;20205;-74
2021/07/25 09:29:51;;;;;;;5.37;4.87;;;24.20;99.90;;;;;;4996542;28;20304;-72
2021/07/25 09:32:18;;;;;;;4.67;4.27;;;24.30;99.90;;;;;;4998980;28;20193;-73
2021/07/25 09:34:49;;;;;;;4.77;4.33;;;24.50;99.90;;;;;;4996924;28;20217;-72
2021/07/25 09:37:21;;;;;;;6.73;5.07;;;24.80;99.90;;;;;;4994421;28;20487;-74
2021/07/25 09:39:48;;;;;;;5.60;5.07;;;24.60;99.90;;;;;;4995722;28;20440;-73
2021/07/25 09:42:14;;;;;;;5.13;4.50;;;24.50;99.90;;;;;;4997631;28;20434;-73
2021/07/25 09:44:51;;;;;;;6.07;5.50;;;24.50;99.90;;;;;;4999839;28;20493;-73
2021/07/25 09:47:43;;;;;;;5.13;4.63;;;24.50;99.90;;;;;;4996669;28;20860;-73
2021/07/25 09:50:09;;;;;;;7.63;5.33;;;24.60;99.90;;;;;;4987527;28;20476;-73
2021/07/25 09:52:34;;;;;;;6.63;5.07;;;24.60;99.90;;;;;;4998331;28;20448;-73
2021/07/25 09:55:02;;;;;;;4.97;4.47;;;24.60;99.90;;;;;;4997649;28;20700;-73
2021/07/25 09:57:31;;;;;;;4.93;4.43;;;24.70;99.90;;;;;;4996419;28;20196;-72
2021/07/25 10:00:06;;;;;;;4.63;4.20;;;24.70;99.90;;;;;;4995358;28;20492;-72
2021/07/25 10:02:45;;;;;;;6.20;4.20;;;24.70;99.90;;;;;;4994112;28;20938;-73
2021/07/25 10:05:22;;;;;;;4.77;4.37;;;24.80;99.90;;;;;;4993616;28;20489;-73
2021/07/25 10:07:48;;;;;;;7.20;5.17;;;24.80;99.90;;;;;;4995514;28;20534;-73
2021/07/25 10:10:18;;;;;;;5.60;5.10;;;24.70;99.90;;;;;;4995065;28;20463;-73
2021/07/25 10:12:46;;;;;;;7.70;4.23;;;24.80;99.90;;;;;;4997549;28;20869;-73
2021/07/25 10:15:14;;;;;;;4.30;3.90;;;24.80;99.90;;;;;;4997444;28;20958;-74
2021/07/25 10:17:42;;;;;;;4.97;4.53;;;24.90;99.90;;;;;;4995027;28;20480;-75
2021/07/25 10:20:10;;;;;;;4.90;4.50;;;24.90;99.90;;;;;;4996195;28;20523;-78
2021/07/25 10:22:38;;;;;;;6.33;5.70;;;24.70;99.90;;;;;;4981717;28;20437;-78
2021/07/25 10:25:08;;;;;;;5.00;4.50;;;24.70;99.90;;;;;;4997268;28;20448;-74
2021/07/25 10:27:39;;;;;;;5.83;4.40;;;24.70;99.90;;;;;;4997169;28;20441;-74
2021/07/25 10:30:07;;;;;;;5.23;4.73;;;24.90;99.90;;;;;;4992740;28;20471;-74
2021/07/25 10:32:43;;;;;;;4.60;4.20;;;24.80;99.90;;;;;;4977543;28;20449;-75
2021/07/25 10:35:12;;;;;;;4.20;3.80;;;24.90;99.90;;;;;;4978771;28;21007;-74
2021/07/25 10:37:40;;;;;;;7.43;5.50;;;24.90;99.90;;;;;;4993890;28;20647;-74
2021/07/25 10:40:10;;;;;;;4.77;4.27;;;24.90;99.90;;;;;;4994309;28;20438;-73
2021/07/25 10:42:49;;;;;;;6.23;4.80;;;25.00;99.90;;;;;;4996088;28;20444;-74
2021/07/25 10:45:15;;;;;;;7.87;6.20;;;25.00;99.90;;;;;;4995785;28;20464;-75
2021/07/25 10:47:43;;;;;;;4.90;4.50;;;24.90;99.90;;;;;;4997275;28;20806;-75
2021/07/25 10:50:29;;;;;;;5.10;4.60;;;24.90;99.90;;;;;;4977726;28;20220;-74
2021/07/25 10:52:55;;;;;;;5.17;4.60;;;24.90;99.90;;;;;;4997730;28;20440;-75
2021/07/25 10:55:44;;;;;;;7.67;4.60;;;24.90;99.90;;;;;;4994329;28;20823;-74
2021/07/25 10:58:12;;;;;;;4.40;4.00;;;25.10;99.90;;;;;;4993220;28;20520;-73
2021/07/25 11:00:57;;;;;;;4.90;4.40;;;25.20;99.90;;;;;;4998348;28;20437;-75
2021/07/25 11:03:25;;;;;;;4.60;4.20;;;25.20;99.90;;;;;;4971994;28;20451;-75
2021/07/25 11:06:07;;;;;;;4.40;4.00;;;25.30;99.90;;;;;;4992679;28;20467;-75
2021/07/25 11:08:33;;;;;;;5.40;4.43;;;25.40;99.90;;;;;;4996240;28;20864;-74
2021/07/25 11:10:59;;;;;;;5.60;4.60;;;25.80;99.90;;;;;;4994533;28;20471;-75
2021/07/25 11:13:41;;;;;;;7.53;6.67;;;26.10;99.90;;;;;;4975065;28;20436;-75
2021/07/25 11:16:31;;;;;;;5.30;4.80;;;26.50;99.90;;;;;;4994838;28;20448;-75
2021/07/25 11:19:00;;;;;;;4.17;3.77;;;26.90;99.90;;;;;;4988135;28;20437;-76
2021/07/25 11:21:36;;;;;;;5.50;4.70;;;26.70;99.90;;;;;;4992830;28;20440;-75
2021/07/25 11:24:26;;;;;;;4.53;4.03;;;26.80;99.90;;;;;;4988369;28;20447;-75
2021/07/25 11:27:03;;;;;;;3.73;3.43;;;26.80;99.90;;;;;;4986985;28;20467;-74
2021/07/25 11:29:32;;;;;;;4.60;3.83;;;26.80;99.90;;;;;;4994210;28;20510;-76
2021/07/25 11:31:59;;;;;;;4.40;4.10;;;26.80;99.90;;;;;;4994413;28;20431;-76
2021/07/25 11:34:33;;;;;;;4.27;3.87;;;26.80;99.90;;;;;;4987862;28;21554;-73
2021/07/25 11:37:02;;;;;;;6.63;3.73;;;27.00;99.90;;;;;;4991998;28;20559;-76
2021/07/25 11:39:29;;;;;;;7.03;4.30;;;27.00;99.90;;;;;;4992815;28;20445;-73
2021/07/25 11:41:55;;;;;;;4.50;4.10;;;27.20;99.90;;;;;;4993528;28;21011;-73
2021/07/25 11:44:25;;;;;;;6.00;4.43;;;27.10;99.90;;;;;;4970517;28;20888;-72
2021/07/25 11:46:51;;;;;;;5.70;4.70;;;27.00;99.90;;;;;;4991236;28;20459;-74
2021/07/25 11:49:24;;;;;;;4.77;4.17;;;27.40;99.90;;;;;;4993594;28;20472;-74
2021/07/25 11:52:00;;;;;;;5.20;4.70;;;27.30;99.90;;;;;;4995412;28;20497;-75
2021/07/25 11:54:27;;;;;;;6.30;4.23;;;27.30;99.90;;;;;;4982227;28;20467;-74
2021/07/25 11:56:53;;;;;;;5.93;4.53;;;27.60;99.90;;;;;;4993073;28;20444;-74
2021/07/25 11:59:19;;;;;;;4.37;3.97;;;27.50;99.90;;;;;;4993570;28;20515;-75
2021/07/25 12:01:45;;;;;;;4.43;4.00;;;27.80;99.90;;;;;;4973342;28;20527;-75
2021/07/25 12:04:21;;;;;;;6.50;4.83;;;27.90;99.90;;;;;;4992923;28;20221;-74
2021/07/25 12:06:55;;;;;;;4.70;4.27;;;28.50;99.90;;;;;;5000197;28;20534;-74
2021/07/25 12:09:22;;;;;;;4.97;4.10;;;28.80;99.90;;;;;;4998665;28;20475;-75
2021/07/25 12:11:50;;;;;;;4.20;3.80;;;28.80;99.90;;;;;;5003069;28;20416;-73
2021/07/25 12:14:16;;;;;;;6.03;5.53;;;29.80;99.90;;;;;;5024291;28;20445;-73
2021/07/25 12:16:48;;;;;;;5.80;4.00;;;29.80;99.90;;;;;;5028691;28;20838;-73
2021/07/25 12:19:19;;;;;;;5.43;4.10;;;30.20;99.90;;;;;;5026419;28;20225;-74
2021/07/25 12:21:47;;;;;;;4.67;4.27;;;31.60;99.90;;;;;;5022952;28;20434;-74
2021/07/25 12:24:26;;;;;;;4.90;4.40;;;32.00;99.90;;;;;;5014725;28;20464;-75
2021/07/25 12:26:52;;;;;;;6.23;4.10;;;31.90;99.90;;;;;;4992815;28;20429;-76
2021/07/25 12:29:40;;;;;;;5.37;4.70;;;32.30;99.90;;;;;;4993324;28;20982;-75
2021/07/25 12:32:21;;;;;;;4.40;4.00;;;32.00;99.90;;;;;;4993481;28;20177;-76
2021/07/25 12:34:47;;;;;;;4.67;4.30;;;32.80;99.90;;;;;;4992520;28;20981;-76
2021/07/25 12:37:32;;;;;;;4.83;4.43;;;32.10;99.90;;;;;;4991076;28;20452;-76
2021/07/25 12:40:10;;;;;;;4.97;4.57;;;31.80;99.90;;;;;;4991002;28;20566;-75
2021/07/25 12:42:45;;;;;;;4.97;4.47;;;31.30;99.90;;;;;;4991879;28;20519;-74
2021/07/25 12:45:32;;;;;;;4.73;4.20;;;31.30;99.90;;;;;;4989724;28;21010;-75
2021/07/25 12:48:21;;;;;;;5.03;4.53;;;30.90;99.90;;;;;;4975055;28;20860;-75
2021/07/25 12:50:54;;;;;;;4.57;4.00;;;32.50;99.90;;;;;;4984890;28;20446;-75
2021/07/25 12:53:30;;;;;;;4.77;4.37;;;34.40;99.90;;;;;;4993593;28;21076;-75